Time;durP1;ratioP1;P1;durP2;ratioP2;P2;SDS_P1;SDS_P2;PMS_P1;PMS_P2;Temp;Humidity;BMP_temperature;BMP_pressure;BME280_temperature;BME280_humidity;BME280_pressure;Samples;Min_cycle;Max_cycle;Signal;HPM_P1;HPM_P2
2022/10/25 00:01:26;;;;;;;9.40;4.70;;;;;;;11.44;77.34;98818.83;102189;1297;61622;-25
2022/10/25 00:03:53;;;;;;;7.00;4.50;;;;;;;11.33;77.41;98818.52;101934;1298;74586;-24
2022/10/25 00:06:20;;;;;;;7.60;4.70;;;;;;;11.10;78.45;98823.33;102210;1299;76530;-24
2022/10/25 00:08:47;;;;;;;8.00;5.00;;;;;;;10.90;78.77;98822.84;102275;1299;74113;-24
2022/10/25 00:11:18;;;;;;;8.40;4.60;;;;;;;10.71;79.16;98827.33;102238;1294;63001;-24
2022/10/25 00:13:47;;;;;;;7.60;3.70;;;;;;;10.55;80.65;98826.44;102021;1299;61819;-24
2022/10/25 00:16:16;;;;;;;7.30;5.00;;;;;;;10.96;79.81;98829.23;102134;1299;75367;-24
2022/10/25 00:18:43;;;;;;;10.70;5.80;;;;;;;11.22;78.66;98829.43;102232;1302;76738;-24
2022/10/25 00:21:10;;;;;;;7.90;6.10;;;;;;;11.19;78.17;98828.61;102193;1291;75459;-24
2022/10/25 00:23:37;;;;;;;8.30;6.80;;;;;;;11.06;78.36;98824.52;102253;1299;62969;-23
2022/10/25 00:26:05;;;;;;;13.80;5.90;;;;;;;10.86;78.95;98821.86;102242;1301;62560;-24
2022/10/25 00:28:32;;;;;;;7.80;4.40;;;;;;;10.75;79.01;98815.36;102237;1302;75629;-24
2022/10/25 00:31:04;;;;;;;6.60;4.70;;;;;;;11.18;78.57;98811.73;102357;1298;75572;-24
2022/10/25 00:33:31;;;;;;;7.00;4.70;;;;;;;11.47;76.88;98810.20;102327;1300;74199;-23
2022/10/25 00:36:12;;;;;;;10.20;6.60;;;;;;;11.40;76.71;98808.94;102359;1299;62591;-24
2022/10/25 00:38:39;;;;;;;7.70;6.80;;;;;;;11.13;77.49;98809.86;102242;1300;62738;-24
2022/10/25 00:41:06;;;;;;;8.60;6.60;;;;;;;10.84;77.98;98808.23;102355;1298;75600;-24
2022/10/25 00:43:43;;;;;;;7.30;4.30;;;;;;;10.60;78.41;98807.66;102317;1295;75780;-24
2022/10/25 00:46:16;;;;;;;7.70;4.30;;;;;;;11.01;78.41;98809.20;101938;1299;75120;-24
2022/10/25 00:49:04;;;;;;;6.80;4.40;;;;;;;11.46;77.29;98806.46;102250;1291;62626;-24
2022/10/25 00:51:49;;;;;;;6.80;4.10;;;;;;;11.40;76.84;98809.23;102015;1301;63152;-24
2022/10/25 00:54:19;;;;;;;7.30;4.70;;;;;;;11.07;76.82;98808.97;101992;1299;75788;-24
2022/10/25 00:56:51;;;;;;;7.40;5.00;;;;;;;10.74;77.48;98807.61;101958;1298;77406;-24
2022/10/25 00:59:20;;;;;;;10.30;5.50;;;;;;;10.43;78.21;98807.49;102150;1299;75238;-24
2022/10/25 01:01:47;;;;;;;7.80;5.40;;;;;;;10.14;80.18;98808.48;102159;1302;63437;-25
2022/10/25 01:04:15;;;;;;;9.20;6.40;;;;;;;10.47;80.36;98804.02;102035;1291;61523;-24
2022/10/25 01:06:46;;;;;;;11.90;6.30;;;;;;;10.93;78.58;98799.81;101960;1294;75385;-24
2022/10/25 01:09:19;;;;;;;7.40;4.90;;;;;;;10.93;77.89;98799.98;102139;1299;76667;-24
2022/10/25 01:11:46;;;;;;;10.20;6.20;;;;;;;10.67;78.69;98802.48;102318;1299;75130;-23
2022/10/25 01:14:14;;;;;;;9.60;5.00;;;;;;;10.40;79.81;98803.41;102265;1291;61891;-24
2022/10/25 01:17:02;;;;;;;8.30;4.60;;;;;;;10.22;80.47;98799.86;102047;1291;62071;-24
2022/10/25 01:19:38;;;;;;;9.60;5.10;;;;;;;10.62;79.65;98804.15;102177;1294;74639;-24
2022/10/25 01:22:10;;;;;;;11.00;4.90;;;;;;;10.89;78.18;98800.88;102334;1298;75949;-24
2022/10/25 01:25:02;;;;;;;9.30;5.40;;;;;;;10.76;78.01;98797.77;102161;1302;74146;-24
2022/10/25 01:27:48;;;;;;;8.80;6.10;;;;;;;10.44;79.07;98797.31;102015;1294;62920;-24
2022/10/25 01:30:30;;;;;;;9.90;6.10;;;;;;;10.09;80.64;98799.30;102230;1298;61800;-24
2022/10/25 01:33:05;;;;;;;10.30;5.40;;;;;;;10.09;81.39;98799.02;102313;1298;75167;-24
2022/10/25 01:36:11;;;;;;;11.10;6.80;;;;;;;10.41;80.24;98793.79;102245;1299;75722;-24
2022/10/25 01:39:06;;;;;;;9.10;6.50;;;;;;;10.43;79.67;98793.23;102379;1299;73865;-24
2022/10/25 01:41:52;;;;;;;10.10;6.60;;;;;;;10.23;80.28;98789.87;102028;1299;61678;-24
2022/10/25 01:44:30;;;;;;;13.10;6.30;;;;;;;10.06;81.24;98791.16;102106;1292;62730;-24
2022/10/25 01:47:14;;;;;;;9.10;6.60;;;;;;;10.51;80.02;98786.88;102246;1302;76638;-24
2022/10/25 01:49:58;;;;;;;;;;;;;;;10.81;78.24;98787.09;102057;1299;75703;-25
2022/10/25 01:52:26;;;;;;;9.70;6.10;;;;;;;10.68;78.10;98790.06;102194;1302;75130;-24
2022/10/25 01:54:53;;;;;;;10.60;6.10;;;;;;;10.45;79.02;98796.36;102259;1293;62481;-24
2022/10/25 01:57:26;;;;;;;10.00;6.00;;;;;;;10.15;80.42;98797.92;102153;1299;62766;-24
2022/10/25 01:59:53;;;;;;;9.10;5.00;;;;;;;9.97;81.04;98798.11;102269;1291;75145;-24
2022/10/25 02:02:49;;;;;;;6.30;4.80;;;;;;;10.36;80.36;98790.66;102314;1299;76673;-24
2022/10/25 02:05:58;;;;;;;12.70;6.20;;;;;;;10.76;78.65;98789.27;102269;1299;75088;-24
2022/10/25 02:08:34;;;;;;;8.60;4.50;;;;;;;10.71;77.94;98784.77;102065;1296;61947;-24
2022/10/25 02:11:04;;;;;;;9.90;5.30;;;;;;;10.51;78.21;98783.08;102211;1302;62629;-24
2022/10/25 02:13:56;;;;;;;8.50;5.70;;;;;;;10.29;78.40;98775.88;102233;1295;76091;-24
2022/10/25 02:16:28;;;;;;;6.30;3.90;;;;;;;10.11;79.53;98778.54;102232;1298;75633;-24
2022/10/25 02:19:00;;;;;;;9.10;4.80;;;;;;;10.60;78.97;98777.06;102118;1302;73836;-25
2022/10/25 02:21:27;;;;;;;8.50;5.10;;;;;;;11.09;77.94;98772.47;102224;1299;61809;-25
2022/10/25 02:23:54;;;;;;;7.50;5.00;;;;;;;11.11;77.22;98773.35;102141;1295;61851;-24
2022/10/25 02:26:21;;;;;;;7.00;4.70;;;;;;;10.80;77.12;98776.09;102322;1292;76393;-24
2022/10/25 02:28:48;;;;;;;6.50;5.00;;;;;;;10.46;77.88;98771.69;102352;1291;76803;-24
2022/10/25 02:31:16;;;;;;;9.10;5.40;;;;;;;10.16;79.28;98768.76;102241;1301;75087;-24
2022/10/25 02:33:44;;;;;;;6.90;4.30;;;;;;;9.96;79.80;98773.90;102049;1291;63166;-25
2022/10/25 02:36:17;;;;;;;6.10;4.20;;;;;;;10.33;79.80;98777.77;102302;1294;63115;-24
2022/10/25 02:38:45;;;;;;;7.70;4.70;;;;;;;10.91;78.35;98771.80;102310;1299;75062;-24
2022/10/25 02:41:12;;;;;;;8.00;5.20;;;;;;;10.99;77.54;98763.80;102107;1294;75696;-25
2022/10/25 02:43:39;;;;;;;9.50;4.10;;;;;;;10.89;77.25;98765.00;102126;1295;74230;-25
2022/10/25 02:46:07;;;;;;;9.90;7.10;;;;;;;10.66;77.21;98767.65;102215;1291;61784;-25
2022/10/25 02:48:35;;;;;;;13.50;11.30;;;;;;;10.37;77.78;98766.67;102086;1290;61492;-24
2022/10/25 02:51:03;;;;;;;11.00;8.00;;;;;;;10.16;78.57;98761.65;102245;1294;74007;-24
2022/10/25 02:53:30;;;;;;;15.70;11.60;;;;;;;10.49;78.96;98763.72;102263;1300;76699;-24
2022/10/25 02:56:08;;;;;;;9.20;6.70;;;;;;;10.99;77.63;98764.88;102393;1299;75379;-24
2022/10/25 02:58:36;;;;;;;15.30;9.60;;;;;;;10.96;76.87;98771.08;102342;1299;63057;-25
2022/10/25 03:01:04;;;;;;;12.80;8.50;;;;;;;10.75;77.28;98772.15;102180;1301;63323;-25
2022/10/25 03:03:31;;;;;;;13.60;6.60;;;;;;;10.49;77.66;98772.10;102340;1294;76336;-24
2022/10/25 03:05:58;;;;;;;12.70;6.50;;;;;;;10.22;78.40;98771.91;102304;1299;75797;-24
2022/10/25 03:08:25;;;;;;;5.40;3.80;;;;;;;10.03;79.03;98767.99;102197;1299;75566;-24
2022/10/25 03:10:57;;;;;;;6.80;4.10;;;;;;;10.43;79.18;98761.16;102324;1299;61863;-25
2022/10/25 03:13:24;;;;;;;6.90;4.20;;;;;;;10.96;77.97;98766.19;102265;1299;61852;-24
2022/10/25 03:15:51;;;;;;;7.50;5.00;;;;;;;11.00;77.03;98764.09;102247;1292;75415;-24
2022/10/25 03:18:18;;;;;;;7.60;4.50;;;;;;;10.78;77.22;98761.46;102205;1292;76070;-25
2022/10/25 03:20:45;;;;;;;7.60;5.40;;;;;;;10.49;77.87;98759.60;102264;1291;75213;-24
2022/10/25 03:23:12;;;;;;;9.40;5.70;;;;;;;10.17;79.04;98757.71;102269;1293;61784;-24
2022/10/25 03:25:39;;;;;;;12.40;4.30;;;;;;;9.97;79.49;98759.61;102219;1297;63070;-24
2022/10/25 03:28:06;;;;;;;11.10;4.70;;;;;;;10.37;79.67;98754.16;102283;1299;76148;-24
2022/10/25 03:30:33;;;;;;;8.50;5.30;;;;;;;10.92;78.55;98747.02;102248;1299;75503;-24
2022/10/25 03:33:00;;;;;;;7.30;4.90;;;;;;;11.02;77.66;98745.50;102281;1292;73817;-24
2022/10/25 03:35:27;;;;;;;6.60;4.90;;;;;;;10.86;77.49;98744.16;102278;1291;62474;-24
2022/10/25 03:37:54;;;;;;;8.30;5.90;;;;;;;10.62;77.76;98735.20;102128;1302;62609;-24
2022/10/25 03:40:21;;;;;;;7.60;5.10;;;;;;;10.38;77.95;98733.44;102242;1299;75294;-24
2022/10/25 03:42:48;;;;;;;5.60;3.90;;;;;;;10.16;78.01;98733.04;102223;1299;76665;-24
2022/10/25 03:45:15;;;;;;;8.60;4.40;;;;;;;10.42;78.33;98731.71;102276;1291;74201;-24
2022/10/25 03:47:42;;;;;;;6.30;4.40;;;;;;;10.80;77.59;98730.92;102282;1292;62625;-24
2022/10/25 03:50:09;;;;;;;6.40;4.60;;;;;;;10.75;76.95;98729.75;102189;1298;62916;-24
2022/10/25 03:52:36;;;;;;;7.10;5.30;;;;;;;10.48;77.34;98724.98;102154;1299;76146;-25
2022/10/25 03:55:04;;;;;;;7.00;4.80;;;;;;;10.15;77.81;98719.71;102210;1292;75767;-24
2022/10/25 03:57:31;;;;;;;7.90;5.60;;;;;;;9.83;78.37;98724.00;102350;1289;75277;-24
2022/10/25 03:59:58;;;;;;;9.00;5.30;;;;;;;9.54;79.22;98721.66;102190;1302;63124;-24
2022/10/25 04:02:26;;;;;;;6.60;5.10;;;;;;;9.84;79.71;98721.67;102221;1299;61867;-24
2022/10/25 04:04:53;;;;;;;7.10;5.10;;;;;;;10.19;79.02;98719.24;102278;1285;76224;-24
2022/10/25 04:07:20;;;;;;;8.60;5.40;;;;;;;10.14;78.42;98718.48;102347;1291;76697;-24
2022/10/25 04:09:47;;;;;;;5.80;4.70;;;;;;;9.85;78.50;98712.05;102353;1299;75304;-24
2022/10/25 04:12:14;;;;;;;10.30;4.30;;;;;;;9.52;78.99;98707.98;102374;1292;62491;-24
2022/10/25 04:14:41;;;;;;;5.70;4.30;;;;;;;9.18;79.65;98701.88;102287;1299;62117;-24
2022/10/25 04:17:09;;;;;;;7.00;4.30;;;;;;;8.92;80.10;98698.24;102180;1299;76460;-24
2022/10/25 04:19:36;;;;;;;7.90;4.50;;;;;;;9.29;80.66;98694.56;102228;1291;76566;-24
2022/10/25 04:22:03;;;;;;;6.50;5.10;;;;;;;9.74;79.41;98693.70;102310;1299;73200;-24
2022/10/25 04:24:29;;;;;;;9.30;5.50;;;;;;;9.73;79.16;98690.17;102285;1299;62859;-24
2022/10/25 04:26:56;;;;;;;7.60;5.40;;;;;;;9.51;79.10;98687.83;102316;1299;61970;-24
2022/10/25 04:29:23;;;;;;;12.60;6.90;;;;;;;9.23;79.59;98684.54;102274;1291;76254;-24
2022/10/25 04:31:50;;;;;;;14.90;8.60;;;;;;;8.97;80.28;98682.66;102244;1299;76738;-24
2022/10/25 04:34:17;;;;;;;8.80;5.10;;;;;;;8.76;81.10;98679.64;102271;1299;75298;-24
2022/10/25 04:36:44;;;;;;;8.10;5.50;;;;;;;9.16;81.06;98679.70;102262;1297;61882;-24
2022/10/25 04:39:11;;;;;;;10.50;6.60;;;;;;;9.71;80.12;98679.70;102296;1299;63112;-24
2022/10/25 04:41:38;;;;;;;11.00;8.10;;;;;;;9.80;79.95;98680.18;102340;1298;76336;-24
2022/10/25 04:44:05;;;;;;;10.30;8.10;;;;;;;9.66;79.80;98680.13;102316;1291;76759;-24
2022/10/25 04:46:32;;;;;;;11.10;7.80;;;;;;;9.44;80.32;98680.58;102236;1301;75199;-24
2022/10/25 04:48:59;;;;;;;14.60;7.20;;;;;;;9.18;80.54;98684.90;102193;1299;62961;-24
2022/10/25 04:51:26;;;;;;;7.10;4.70;;;;;;;8.97;81.35;98684.70;102122;1302;62548;-24
2022/10/25 04:53:54;;;;;;;13.00;6.00;;;;;;;9.37;81.48;98683.20;102327;1291;76248;-24
2022/10/25 04:56:21;;;;;;;9.40;6.20;;;;;;;9.90;80.09;98684.58;102129;1300;77104;-24
2022/10/25 04:58:48;;;;;;;9.40;6.10;;;;;;;9.95;79.02;98679.27;102328;1299;75188;-24
2022/10/25 05:01:16;;;;;;;9.20;6.10;;;;;;;9.73;78.90;98678.87;102173;1300;62832;-24
2022/10/25 05:03:43;;;;;;;8.50;5.20;;;;;;;9.43;80.05;98674.39;102325;1298;61570;-24
2022/10/25 05:06:24;;;;;;;10.30;7.00;;;;;;;9.17;80.85;98677.74;102288;1291;76500;-24
2022/10/25 05:08:51;;;;;;;9.50;5.00;;;;;;;9.05;81.29;98681.67;102044;1294;76991;-24
2022/10/25 05:11:20;;;;;;;8.10;4.90;;;;;;;9.56;80.94;98680.67;102196;1299;75175;-24
2022/10/25 05:13:47;;;;;;;7.40;5.50;;;;;;;10.16;79.72;98682.95;102064;1299;62900;-24
2022/10/25 05:16:19;;;;;;;7.40;5.30;;;;;;;10.26;79.07;98690.54;102303;1299;61513;-24
2022/10/25 05:18:46;;;;;;;7.70;5.30;;;;;;;10.09;78.57;98695.98;102164;1299;76318;-24
2022/10/25 05:21:14;;;;;;;11.00;6.70;;;;;;;9.86;78.97;98697.90;102319;1299;76569;-24
2022/10/25 05:23:41;;;;;;;12.60;7.70;;;;;;;9.65;79.60;98690.08;102389;1296;74902;-24
2022/10/25 05:26:16;;;;;;;11.40;4.60;;;;;;;9.51;79.98;98686.89;102347;1289;64578;-24
2022/10/25 05:28:44;;;;;;;6.60;4.70;;;;;;;9.97;80.02;98690.91;102006;1299;61838;-24
2022/10/25 05:31:14;;;;;;;12.80;6.30;;;;;;;10.47;78.68;98691.42;102077;1302;76169;-24
2022/10/25 05:33:43;;;;;;;9.20;6.20;;;;;;;10.51;78.07;98686.41;102152;1299;76824;-24
2022/10/25 05:36:11;;;;;;;11.90;6.50;;;;;;;10.32;78.11;98682.79;102307;1299;73930;-24
2022/10/25 05:38:38;;;;;;;11.00;6.80;;;;;;;10.11;78.62;98682.33;102256;1298;62638;-24
2022/10/25 05:41:05;;;;;;;13.40;7.40;;;;;;;9.91;79.12;98686.55;102232;1291;63021;-24
2022/10/25 05:43:32;;;;;;;7.20;4.80;;;;;;;9.78;79.81;98693.34;102224;1291;76330;-24
2022/10/25 05:46:03;;;;;;;8.00;4.60;;;;;;;10.21;79.56;98696.05;102317;1299;76471;-24
2022/10/25 05:48:31;;;;;;;24.00;9.20;;;;;;;10.70;76.65;98701.36;102247;1297;75217;-24
2022/10/25 05:51:08;;;;;;;27.70;9.70;;;;;;;10.50;76.50;98709.71;102148;1302;61558;-24
2022/10/25 05:53:57;;;;;;;34.00;14.10;;;;;;;10.27;77.90;98709.02;102124;1299;62690;-24
2022/10/25 05:56:25;;;;;;;85.00;47.90;;;;;;;9.94;78.69;98709.41;102097;1302;75993;-24
2022/10/25 05:58:52;;;;;;;284.20;124.10;;;;;;;9.76;79.93;98704.64;101995;1302;76727;-24
2022/10/25 06:01:20;;;;;;;64.00;31.90;;;;;;;9.74;80.66;98700.79;102232;1297;75244;-24
2022/10/25 06:03:48;;;;;;;41.00;21.30;;;;;;;10.27;80.01;98708.55;102081;1299;62611;-24
2022/10/25 06:06:16;;;;;;;33.00;18.70;;;;;;;10.91;78.75;98720.37;101924;1291;61766;-24
2022/10/25 06:08:43;;;;;;;31.70;16.90;;;;;;;11.09;77.74;98725.20;102196;1299;76355;-24
2022/10/25 06:11:14;;;;;;;42.80;24.00;;;;;;;10.96;77.35;98732.48;102203;1298;77116;-24
2022/10/25 06:13:41;;;;;;;61.30;30.30;;;;;;;10.73;77.49;98736.52;101965;1302;75682;-24
2022/10/25 06:16:16;;;;;;;93.70;49.90;;;;;;;10.56;78.40;98732.95;102216;1296;61181;-24
2022/10/25 06:18:44;;;;;;;83.30;45.70;;;;;;;10.46;78.85;98732.66;101951;1299;62086;-24
2022/10/25 06:21:12;;;;;;;45.90;25.40;;;;;;;10.39;79.23;98735.81;102230;1299;76375;-24
2022/10/25 06:23:39;;;;;;;42.80;23.70;;;;;;;10.94;79.08;98736.32;101982;1299;76692;-24
2022/10/25 06:26:09;;;;;;;38.10;19.10;;;;;;;11.44;76.45;98733.30;102295;1299;74187;-24
2022/10/25 06:28:36;;;;;;;31.00;18.50;;;;;;;11.44;76.35;98736.95;102090;1294;61056;-24
2022/10/25 06:31:05;;;;;;;31.60;19.40;;;;;;;11.29;76.64;98737.77;102297;1291;63029;-25
2022/10/25 06:33:32;;;;;;;28.80;16.90;;;;;;;11.17;77.31;98732.34;102242;1299;76606;-24
2022/10/25 06:36:00;;;;;;;33.60;19.40;;;;;;;11.08;77.16;98728.84;102251;1292;76376;-24
2022/10/25 06:38:28;;;;;;;33.70;20.20;;;;;;;10.94;77.43;98731.94;102051;1299;75267;-24
2022/10/25 06:41:05;;;;;;;39.80;20.00;;;;;;;10.81;77.82;98730.48;102114;1302;64488;-24
2022/10/25 06:43:33;;;;;;;46.40;25.00;;;;;;;11.33;77.65;98722.98;101930;1291;62922;-24
2022/10/25 06:46:12;;;;;;;54.80;29.00;;;;;;;11.82;76.55;98715.39;102274;1291;75326;-24
2022/10/25 06:48:39;;;;;;;28.10;16.10;;;;;;;11.83;75.76;98717.43;102347;1299;76676;-24
2022/10/25 06:51:10;;;;;;;16.40;10.80;;;;;;;11.55;75.75;98714.53;102309;1299;75527;-24
2022/10/25 06:53:37;;;;;;;16.50;9.70;;;;;;;11.18;76.57;98709.68;102199;1300;62894;-24
2022/10/25 06:56:06;;;;;;;12.20;8.50;;;;;;;10.84;77.47;98709.73;102366;1291;61163;-24
2022/10/25 06:58:39;;;;;;;9.60;6.30;;;;;;;10.56;78.31;98709.92;102099;1302;76374;-24
2022/10/25 07:01:09;;;;;;;10.50;8.00;;;;;;;10.89;78.36;98712.27;102178;1302;76565;-24
2022/10/25 07:03:36;;;;;;;21.60;14.00;;;;;;;11.27;77.42;98702.25;102005;1302;74943;-24
2022/10/25 07:06:13;;;;;;;42.00;25.50;;;;;;;11.26;76.95;98696.45;102271;1299;61178;-24
2022/10/25 07:08:44;;;;;;;59.30;37.30;;;;;;;11.04;77.34;98694.79;102176;1301;61827;-24
2022/10/25 07:11:16;;;;;;;79.10;50.80;;;;;;;10.79;77.64;98692.96;102197;1302;75191;-24
2022/10/25 07:13:43;;;;;;;96.10;58.00;;;;;;;10.56;78.75;98693.41;101986;1305;76830;-24
2022/10/25 07:16:12;;;;;;;71.60;42.20;;;;;;;10.43;79.49;98691.61;102256;1295;73307;-24
2022/10/25 07:18:39;;;;;;;80.50;43.70;;;;;;;10.86;79.03;98695.48;102075;1301;62870;-24
2022/10/25 07:21:27;;;;;;;57.40;34.70;;;;;;;11.26;77.78;98696.95;102276;1299;61539;-24
2022/10/25 07:23:54;;;;;;;41.30;26.30;;;;;;;11.26;77.21;98694.95;102275;1299;75414;-24
2022/10/25 07:26:22;;;;;;;31.30;19.70;;;;;;;11.04;77.87;98697.23;102317;1299;77140;-24
2022/10/25 07:28:51;;;;;;;28.10;15.50;;;;;;;10.76;78.56;98699.45;102260;1299;73874;-24
2022/10/25 07:31:27;;;;;;;21.90;11.70;;;;;;;10.53;80.00;98704.62;102117;1299;63202;-24
2022/10/25 07:33:56;;;;;;;19.90;12.00;;;;;;;10.92;79.75;98705.04;102019;1299;63194;-24
2022/10/25 07:36:23;;;;;;;19.90;12.40;;;;;;;11.42;78.79;98707.42;101995;1300;76186;-24
2022/10/25 07:38:50;;;;;;;19.30;10.90;;;;;;;11.52;78.26;98707.34;102229;1292;76457;-24
2022/10/25 07:41:17;;;;;;;19.30;11.70;;;;;;;11.41;78.03;98708.52;102210;1297;75234;-24
2022/10/25 07:43:44;;;;;;;20.20;12.40;;;;;;;11.22;78.45;98703.98;102200;1299;62489;-24
2022/10/25 07:46:11;;;;;;;22.30;11.90;;;;;;;11.08;78.70;98702.19;102185;1298;62812;-24
2022/10/25 07:48:39;;;;;;;14.80;7.80;;;;;;;10.98;79.50;98697.89;102265;1298;76065;-24
2022/10/25 07:51:08;;;;;;;10.70;6.80;;;;;;;11.52;79.58;98696.54;102230;1295;76798;-24
2022/10/25 07:53:35;;;;;;;17.90;8.80;;;;;;;12.16;77.79;98694.98;102191;1294;75160;-24
2022/10/25 07:56:02;;;;;;;13.00;7.20;;;;;;;12.25;77.16;98690.83;102242;1298;62953;-24
2022/10/25 07:58:29;;;;;;;13.30;8.10;;;;;;;12.08;76.87;98691.46;102202;1299;63322;-24
2022/10/25 08:01:03;;;;;;;15.00;9.60;;;;;;;11.85;77.54;98687.02;102262;1299;75232;-24
2022/10/25 08:03:31;;;;;;;15.20;9.90;;;;;;;11.60;77.94;98686.96;102118;1299;76834;-24
2022/10/25 08:05:58;;;;;;;14.40;7.90;;;;;;;11.41;78.25;98686.65;102201;1299;75271;-24
2022/10/25 08:08:25;;;;;;;17.20;8.60;;;;;;;11.80;78.58;98680.66;102199;1299;61580;-24
2022/10/25 08:10:52;;;;;;;18.40;10.80;;;;;;;12.30;77.36;98683.02;102213;1299;61099;-24
2022/10/25 08:13:20;;;;;;;15.80;10.10;;;;;;;12.35;76.70;98685.65;102210;1292;76334;-24
2022/10/25 08:15:50;;;;;;;13.90;8.80;;;;;;;12.13;76.85;98685.13;102274;1299;74728;-24
2022/10/25 08:18:18;;;;;;;11.90;8.60;;;;;;;11.86;77.36;98686.91;102135;1300;73727;-24
2022/10/25 08:20:45;;;;;;;11.20;7.20;;;;;;;11.61;77.76;98686.41;102303;1292;63029;-25
2022/10/25 08:23:30;;;;;;;11.60;5.70;;;;;;;11.41;79.18;98689.77;102338;1299;61986;-25
2022/10/25 08:25:58;;;;;;;11.00;6.30;;;;;;;11.86;78.90;98694.23;102143;1301;75080;-25
2022/10/25 08:28:25;;;;;;;12.20;6.80;;;;;;;12.32;77.80;98692.57;102259;1302;75583;-25
2022/10/25 08:30:54;;;;;;;8.30;6.50;;;;;;;12.34;77.38;98693.31;102311;1297;74162;-25
2022/10/25 08:33:22;;;;;;;7.90;6.10;;;;;;;12.15;77.52;98695.20;102323;1293;62022;-25
2022/10/25 08:35:49;;;;;;;10.60;7.20;;;;;;;11.92;78.10;98693.78;102152;1300;62873;-25
2022/10/25 08:38:16;;;;;;;14.00;7.80;;;;;;;11.68;78.95;98694.11;102322;1299;76089;-25
2022/10/25 08:41:17;;;;;;;7.70;4.90;;;;;;;11.50;79.95;98695.41;102212;1299;75908;-25
2022/10/25 08:44:07;;;;;;;9.20;6.20;;;;;;;12.07;79.76;98693.29;102182;1299;72940;-24
2022/10/25 08:46:55;;;;;;;11.40;6.40;;;;;;;12.49;78.60;98690.80;101934;1300;62624;-25
2022/10/25 08:49:31;;;;;;;10.70;7.50;;;;;;;12.43;78.41;98688.05;102252;1297;61735;-26
2022/10/25 08:51:58;;;;;;;15.40;7.60;;;;;;;12.18;78.96;98686.10;102345;1299;75151;-24
2022/10/25 08:54:26;;;;;;;14.30;7.80;;;;;;;11.91;79.99;98689.20;102289;1299;75622;-26
2022/10/25 08:57:03;;;;;;;9.80;6.70;;;;;;;11.74;81.01;98687.65;102313;1299;75442;-26
2022/10/25 08:59:42;;;;;;;10.80;6.20;;;;;;;12.12;80.86;98684.85;102189;1298;61555;-26
2022/10/25 09:02:16;;;;;;;9.00;6.80;;;;;;;12.36;80.24;98689.77;102275;1296;61821;-26
2022/10/25 09:04:43;;;;;;;11.30;6.50;;;;;;;12.29;80.09;98691.44;102238;1299;75416;-25
2022/10/25 09:07:32;;;;;;;13.70;7.40;;;;;;;12.11;80.88;98694.70;102337;1299;76766;-27
2022/10/25 09:10:08;;;;;;;10.70;6.80;;;;;;;11.90;81.58;98696.08;102327;1298;75237;-26
2022/10/25 09:12:40;;;;;;;12.50;8.00;;;;;;;12.16;81.31;98691.98;102314;1298;61970;-26
2022/10/25 09:15:39;;;;;;;13.10;7.80;;;;;;;12.25;80.70;98692.55;102194;1303;63036;-26
2022/10/25 09:18:18;;;;;;;15.20;8.10;;;;;;;12.09;80.86;98693.50;102262;1299;76281;-26
2022/10/25 09:20:48;;;;;;;11.00;6.00;;;;;;;11.88;81.75;98694.53;102341;1299;76684;-26
2022/10/25 09:23:26;;;;;;;11.40;7.40;;;;;;;11.86;82.10;98698.41;102145;1302;73966;-26
2022/10/25 09:26:24;;;;;;;13.10;7.60;;;;;;;12.14;81.69;98701.36;100846;1299;1616413;-26
2022/10/25 09:29:01;;;;;;;12.00;8.30;;;;;;;12.18;81.26;98697.40;102305;1292;62007;-26
2022/10/25 09:31:29;;;;;;;11.00;8.40;;;;;;;11.93;82.15;98695.81;102152;1302;75461;-26
2022/10/25 09:33:59;;;;;;;9.70;5.40;;;;;;;11.80;82.87;98696.67;102025;1300;76814;-25
2022/10/25 09:36:35;;;;;;;10.50;7.50;;;;;;;12.27;82.46;98690.29;102224;1292;73885;-26
2022/10/25 09:39:04;;;;;;;12.20;8.00;;;;;;;12.71;80.70;98685.39;101986;1302;61862;-25
2022/10/25 09:41:34;;;;;;;8.50;6.40;;;;;;;12.68;80.51;98686.41;101981;1302;61488;-25
2022/10/25 09:44:11;;;;;;;11.20;7.80;;;;;;;12.47;80.64;98684.42;102080;1281;74337;-25
2022/10/25 09:46:41;;;;;;;12.00;8.20;;;;;;;12.21;81.17;98677.10;102109;1302;75814;-25
2022/10/25 09:49:37;;;;;;;9.40;6.50;;;;;;;12.01;81.94;98681.14;102068;1302;74209;-25
2022/10/25 09:52:12;;;;;;;13.00;7.80;;;;;;;12.50;81.50;98678.92;102099;1293;61531;-25
2022/10/25 09:54:53;;;;;;;13.00;8.20;;;;;;;12.72;80.60;98674.20;102215;1299;62910;-25
2022/10/25 09:57:20;;;;;;;17.80;8.10;;;;;;;12.59;80.41;98668.98;102307;1299;76228;-25
2022/10/25 09:59:49;;;;;;;11.60;8.50;;;;;;;12.33;81.13;98667.39;102297;1305;76489;-25
2022/10/25 10:02:23;;;;;;;9.70;6.60;;;;;;;12.14;82.00;98664.16;102119;1300;74536;-24
2022/10/25 10:04:50;;;;;;;12.60;7.30;;;;;;;12.51;82.00;98666.30;102033;1299;61831;-24
2022/10/25 10:07:28;;;;;;;12.20;8.20;;;;;;;12.77;80.85;98666.20;102272;1299;61727;-24
2022/10/25 10:09:56;;;;;;;10.50;8.00;;;;;;;12.66;80.16;98668.69;102168;1299;76132;-25
2022/10/25 10:12:27;;;;;;;11.20;7.70;;;;;;;12.37;80.87;98669.30;102111;1296;77104;-25
2022/10/25 10:14:57;;;;;;;9.00;5.70;;;;;;;12.11;81.47;98665.86;102102;1295;75000;-25
2022/10/25 10:17:25;;;;;;;10.00;6.60;;;;;;;12.46;81.61;98664.08;102273;1293;61833;-24
2022/10/25 10:20:08;;;;;;;16.00;8.00;;;;;;;12.82;79.97;98663.84;102175;1298;62021;-25
2022/10/25 10:22:56;;;;;;;10.30;7.50;;;;;;;12.73;79.82;98666.41;102022;1302;74108;-25
2022/10/25 10:35:04;;;;;;;9.70;6.20;;;;;;;12.26;83.07;98663.02;102328;1292;63210;-25
2022/10/25 10:37:32;;;;;;;10.00;7.10;;;;;;;12.95;80.83;98662.59;102021;1296;62601;-25
2022/10/25 10:39:59;;;;;;;8.50;6.60;;;;;;;13.01;79.78;98656.95;102286;1299;75264;-25
2022/10/25 10:42:35;;;;;;;10.70;7.80;;;;;;;12.84;80.03;98655.44;102193;1296;75744;-24
2022/10/25 10:45:11;;;;;;;11.30;8.60;;;;;;;12.54;80.79;98658.52;102302;1297;75205;-24
2022/10/25 10:47:44;;;;;;;11.40;8.00;;;;;;;12.22;81.22;98657.53;102214;1304;63041;-24
2022/10/25 10:50:24;;;;;;;9.50;6.30;;;;;;;11.98;81.82;98652.05;101996;1299;61532;-24
2022/10/25 10:53:13;;;;;;;10.10;6.20;;;;;;;12.43;81.86;98656.20;102251;1299;76331;-24
2022/10/25 10:55:48;;;;;;;10.20;7.10;;;;;;;12.90;80.63;98654.70;102289;1297;76751;-24
2022/10/25 10:58:18;;;;;;;12.60;7.50;;;;;;;12.81;80.38;98653.95;101978;1304;75238;-24
2022/10/25 11:01:01;;;;;;;10.10;7.40;;;;;;;12.53;80.64;98654.00;102140;1302;62888;-24
2022/10/25 11:03:40;;;;;;;12.10;8.40;;;;;;;12.24;81.63;98649.80;102070;1302;62084;-24
2022/10/25 11:06:32;;;;;;;10.70;6.30;;;;;;;12.07;82.71;98642.22;102341;1299;76248;-24
2022/10/25 11:09:19;;;;;;;8.50;5.80;;;;;;;12.64;81.98;98638.49;101964;1299;75500;-24
2022/10/25 11:12:06;;;;;;;9.60;7.30;;;;;;;13.11;80.41;98632.08;102311;1292;75263;-24
2022/10/25 11:14:33;;;;;;;12.60;7.50;;;;;;;12.99;79.82;98626.81;102327;1299;62449;-24
2022/10/25 11:17:22;;;;;;;10.50;8.00;;;;;;;12.72;80.33;98623.13;102315;1298;61703;-24
2022/10/25 11:20:01;;;;;;;14.40;9.00;;;;;;;12.41;81.17;98622.98;102252;1302;74282;-23
2022/10/25 11:22:56;;;;;;;10.50;6.70;;;;;;;12.21;81.83;98625.17;102289;1302;75684;-24
2022/10/25 11:25:38;;;;;;;10.50;7.60;;;;;;;12.83;81.49;98624.16;102390;1299;74924;-24
2022/10/25 11:28:27;;;;;;;14.60;9.20;;;;;;;13.25;80.34;98622.20;102249;1299;61150;-24
2022/10/25 11:31:06;;;;;;;12.20;7.50;;;;;;;13.17;79.81;98630.39;102326;1299;61722;-24
2022/10/25 11:33:50;;;;;;;11.80;9.20;;;;;;;12.90;80.00;98628.54;102203;1298;75506;-23
2022/10/25 11:36:21;;;;;;;12.90;9.70;;;;;;;12.63;80.91;98624.02;102192;1297;76086;-24
2022/10/25 11:39:17;;;;;;;10.80;7.00;;;;;;;12.42;81.75;98624.23;102073;1301;75181;-24
2022/10/25 15:32:02;;;;;;;8.60;5.40;;;;;;;10.44;100.00;98609.94;99597;1325;613716;-22
2022/10/25 15:34:34;;;;;;;5.10;4.30;;;;;;;11.23;100.00;98614.06;101433;1310;63583;-22
2022/10/25 15:37:02;;;;;;;5.50;4.90;;;;;;;12.00;100.00;98609.39;101429;1312;61751;-22
2022/10/25 15:39:31;;;;;;;4.80;4.30;;;;;;;12.25;98.34;98612.34;101395;1312;74131;-22
2022/10/25 15:41:59;;;;;;;5.20;4.10;;;;;;;12.06;96.00;98617.73;101439;1312;75734;-22